Scroll down
FLIGHT INFORMATION
PMDG Flight Operations

PFO809

At Arrival Gate

TNCM
 TKPK
DATE: 2020-08-09
GATE: 
GATE DEPARTURE: 20:29
TAKEOFF: 20:34
DATE: 2020-08-10
GATE:  -
LANDING: 20:51
GATE ARRIVAL: 20:53
FLIGHT DATA
Crew: 
Speed: 
276 kts
Altitude: 
5,245 ft
Stage Length: 
49.2 nm
Block Time: 
0.4 hrs
Flight Time: 
0.3 hrs
Fuel Used: 
1,802 lb
Cleared Route: TNCM DUSUL RW07
TRACK DATA
50,000 ft 1,000 kts
AIRCRAFT INFO AND CUMULATIVE STATS
Aircraft Type: 
B738BDSF
Registration: 
SELCAL: 
MSN/LN: 
0 / 1
Total Flights: 
3
Total Block Time: 
1.2 hrs
Total Flight Time: 
0.9 hrs
Total Fuel Used: 
5,667 lb
DATALINK LOG | Newest first | Current as of: 2022-10-04 21:09:12
LABEL SEQUENCE CONTENT Dn/Up
2U2851TKPK 092100Z 09012KT 9999 SCT021 BKN047 30/24 Q1016▲ Up
2S2845TKPK▼ Dn
Q02743[LINK ACK]▲ Up
Q02743[LINK TEST]▼ Dn


AIRCRAFT HISTORY
FLIGHT DATE FLIGHT NO. ORIGIN DESTINATION CLEARED ROUTE BLOCK TIME FLIGHT TIME FUEL USED PILOT
2020-08-16PFO816TAPA TFFR TAPA PPR IFR12 RW120.4 hrs0.3 hrs1,954 lbKyle Weber
2020-08-12PFO812TKPK TAPA TKPK ANU EMALI RW070.4 hrs0.3 hrs1,911 lbKyle Weber
2020-08-09PFO809TNCM TKPK TNCM DUSUL RW070.4 hrs0.3 hrs1,802 lbKyle Weber